Time;durP1;ratioP1;P1;durP2;ratioP2;P2;SDS_P1;SDS_P2;PMS_P1;PMS_P2;Temp;Humidity;BMP_temperature;BMP_pressure;BME280_temperature;BME280_humidity;BME280_pressure;Samples;Min_cycle;Max_cycle;Signal;HPM_P1;HPM_P2
2023/02/24 00:01:02;;;;;;;;;;;5.80;99.90;;;;;;4951281;28;20025;-69
2023/02/24 00:03:30;;;;;;;;;;;5.80;99.90;;;;;;4950757;28;19926;-69
2023/02/24 00:05:58;;;;;;;;;;;5.70;99.90;;;;;;4951276;29;19972;-69
2023/02/24 00:08:25;;;;;;;;;;;5.80;99.90;;;;;;4949710;28;19941;-69
2023/02/24 00:10:52;;;;;;;;;;;5.70;99.90;;;;;;4950701;29;19933;-68
2023/02/24 00:13:21;;;;;;;;;;;5.70;99.90;;;;;;4950714;29;19931;-68
2023/02/24 00:15:59;;;;;;;;;;;5.60;99.90;;;;;;4950813;28;19933;-68
2023/02/24 00:18:26;;;;;;;;;;;5.50;99.90;;;;;;4951752;29;19934;-68
2023/02/24 00:20:55;;;;;;;;;;;5.50;99.90;;;;;;4951559;28;19933;-68
2023/02/24 00:23:24;;;;;;;;;;;5.40;99.90;;;;;;4951397;29;20297;-69
2023/02/24 00:25:58;;;;;;;;;;;5.30;99.90;;;;;;4950698;28;20296;-69
2023/02/24 00:28:27;;;;;;;;;;;5.30;99.90;;;;;;4939827;28;20001;-68
2023/02/24 00:30:54;;;;;;;;;;;5.10;99.90;;;;;;4932402;29;19926;-69
2023/02/24 00:33:23;;;;;;;;;;;5.00;99.90;;;;;;4946849;28;19933;-68
2023/02/24 00:35:50;;;;;;;;;;;4.90;99.90;;;;;;4954800;29;19930;-68
2023/02/24 00:38:17;;;;;;;;;;;4.90;99.90;;;;;;4954997;29;20017;-68
2023/02/24 00:40:44;;;;;;;;;;;4.80;99.90;;;;;;4954586;29;20369;-69
2023/02/24 00:43:11;;;;;;;;;;;4.80;99.90;;;;;;4954447;29;19933;-69
2023/02/24 00:45:38;;;;;;;;;;;4.80;99.90;;;;;;4952900;28;19933;-69
2023/02/24 00:48:09;;;;;;;;;;;4.70;99.90;;;;;;4954579;29;19926;-69
2023/02/24 00:50:38;;;;;;;;;;;4.70;99.90;;;;;;4953747;29;20289;-69
2023/02/24 00:53:05;;;;;;;;;;;4.60;99.90;;;;;;4954084;29;19927;-68
2023/02/24 00:55:35;;;;;;;;;;;4.50;99.90;;;;;;4954920;29;20413;-69
2023/02/24 00:58:02;;;;;;;;;;;4.50;99.90;;;;;;4949883;29;19973;-69
2023/02/24 01:00:35;;;;;;;;;;;4.40;99.90;;;;;;4952994;28;20021;-69
2023/02/24 01:03:02;;;;;;;;;;;4.40;99.90;;;;;;4941572;29;19934;-68
2023/02/24 01:05:29;;;;;;;;;;;4.40;99.90;;;;;;4954106;29;19926;-69
2023/02/24 01:07:57;;;;;;;;;;;4.30;99.90;;;;;;4951934;28;20381;-69
2023/02/24 01:10:25;;;;;;;;;;;4.30;99.90;;;;;;4952002;28;19926;-69
2023/02/24 01:12:52;;;;;;;;;;;4.30;99.90;;;;;;4950537;28;20378;-68
2023/02/24 01:15:21;;;;;;;;;;;4.20;99.90;;;;;;4953270;28;20452;-69
2023/02/24 01:17:47;;;;;;;;;;;4.30;99.90;;;;;;4953779;29;19966;-69
2023/02/24 01:20:16;;;;;;;;;;;4.30;99.90;;;;;;4954364;29;19926;-69
2023/02/24 01:22:43;;;;;;;;;;;4.30;99.90;;;;;;4954065;28;20346;-69
2023/02/24 01:25:12;;;;;;;;;;;4.40;99.90;;;;;;4953925;29;20408;-70
2023/02/24 01:27:39;;;;;;;;;;;4.40;99.90;;;;;;4953253;29;19927;-70
2023/02/24 01:30:07;;;;;;;;;;;4.40;99.90;;;;;;4942658;28;19978;-69
2023/02/24 01:32:35;;;;;;;;;;;4.40;99.90;;;;;;4935085;29;20294;-69
2023/02/24 01:35:01;;;;;;;;;;;4.50;99.90;;;;;;4954120;29;20304;-69
2023/02/24 01:37:28;;;;;;;;;;;4.60;99.90;;;;;;4953692;28;19949;-69
2023/02/24 01:39:55;;;;;;;;;;;4.60;99.90;;;;;;4953956;29;20282;-70
2023/02/24 01:42:23;;;;;;;;;;;4.60;99.90;;;;;;4952699;29;20385;-69
2023/02/24 01:45:11;;;;;;;;;;;4.70;99.90;;;;;;4952616;28;19926;-70
2023/02/24 01:47:38;;;;;;;;;;;4.70;99.90;;;;;;4953833;29;19926;-69
2023/02/24 01:50:05;;;;;;;;;;;4.70;99.90;;;;;;4953362;29;20009;-69
2023/02/24 01:52:34;;;;;;;;;;;4.80;99.90;;;;;;4952753;29;19926;-68
2023/02/24 01:55:03;;;;;;;;;;;4.80;99.90;;;;;;4952743;29;19969;-69
2023/02/24 01:57:33;;;;;;;;;;;4.80;99.90;;;;;;4934118;29;20396;-68
2023/02/24 02:00:10;;;;;;;;;;;4.80;99.90;;;;;;4947319;28;20306;-68
2023/02/24 02:02:41;;;;;;;;;;;4.80;99.90;;;;;;4953097;29;20382;-68
2023/02/24 02:05:09;;;;;;;;;;;4.80;99.90;;;;;;4945768;29;19970;-69
2023/02/24 02:07:37;;;;;;;;;;;4.80;99.90;;;;;;4953344;29;19934;-68
2023/02/24 02:10:06;;;;;;;;;;;4.80;99.90;;;;;;4952418;29;19934;-68
2023/02/24 02:12:36;;;;;;;;;;;4.90;99.90;;;;;;4936224;29;19934;-68
2023/02/24 02:15:03;;;;;;;;;;;4.90;99.90;;;;;;4949358;29;19934;-68
2023/02/24 02:17:32;;;;;;;;;;;5.00;99.90;;;;;;4952436;29;19931;-71
2023/02/24 02:20:15;;;;;;;;;;;5.00;99.90;;;;;;4939413;29;19927;-68
2023/02/24 02:23:08;;;;;;;;;;;5.00;99.90;;;;;;4934808;29;19934;-70
2023/02/24 02:25:40;;;;;;;;;;;5.00;99.90;;;;;;4955267;28;19927;-69
2023/02/24 02:28:24;;;;;;;;;;;5.00;99.90;;;;;;4943523;28;19996;-69
2023/02/24 02:30:57;;;;;;;;;;;5.00;99.90;;;;;;4953018;29;20425;-69
2023/02/24 02:33:38;;;;;;;;;;;5.00;99.90;;;;;;4952386;29;19927;-70
2023/02/24 02:36:12;;;;;;;;;;;5.10;99.90;;;;;;4948658;28;20412;-69
2023/02/24 02:38:42;;;;;;;;;;;5.00;99.90;;;;;;4933622;29;19934;-69
2023/02/24 02:41:12;;;;;;;;;;;5.00;99.90;;;;;;4947672;29;19926;-69
2023/02/24 02:43:42;;;;;;;;;;;5.00;99.90;;;;;;4948667;28;20288;-69
2023/02/24 02:46:13;;;;;;;;;;;5.00;99.90;;;;;;4944052;28;20301;-69
2023/02/24 02:48:43;;;;;;;;;;;5.00;99.90;;;;;;4933508;29;19927;-69
2023/02/24 02:51:15;;;;;;;;;;;5.10;99.90;;;;;;4933639;29;19927;-68
2023/02/24 02:53:48;;;;;;;;;;;5.10;99.90;;;;;;4933594;29;19927;-68
2023/02/24 02:56:16;;;;;;;;;;;5.10;99.90;;;;;;4945388;29;19926;-68
2023/02/24 02:58:45;;;;;;;;;;;5.10;99.90;;;;;;4950899;28;19933;-68
2023/02/24 03:01:15;;;;;;;;;;;5.10;99.90;;;;;;4949337;29;19934;-68
2023/02/24 03:03:44;;;;;;;;;;;5.10;99.90;;;;;;4935312;29;19927;-68
2023/02/24 03:06:15;;;;;;;;;;;5.10;99.90;;;;;;4933175;29;19933;-69
2023/02/24 03:08:44;;;;;;;;;;;5.10;99.90;;;;;;4938649;29;19926;-69
2023/02/24 03:11:12;;;;;;;;;;;5.10;99.90;;;;;;4952020;29;19926;-69
2023/02/24 03:13:41;;;;;;;;;;;5.10;99.90;;;;;;4950127;28;20309;-68
2023/02/24 03:16:09;;;;;;;;;;;5.10;99.90;;;;;;4942938;29;20043;-68
2023/02/24 03:18:38;;;;;;;;;;;5.00;99.90;;;;;;4951184;29;19927;-68
2023/02/24 03:21:06;;;;;;;;;;;5.00;99.90;;;;;;4951777;29;19927;-69
2023/02/24 03:23:37;;;;;;;;;;;4.90;99.90;;;;;;4946199;29;20397;-69
2023/02/24 03:26:08;;;;;;;;;;;5.00;99.90;;;;;;4950984;29;19930;-69
2023/02/24 03:28:37;;;;;;;;;;;5.00;99.90;;;;;;4948159;28;20373;-68
2023/02/24 03:31:07;;;;;;;;;;;5.00;99.90;;;;;;4950182;28;20025;-68
2023/02/24 03:33:36;;;;;;;;;;;5.00;99.90;;;;;;4948474;29;19926;-69
2023/02/24 03:36:04;;;;;;;;;;;5.00;99.90;;;;;;4951591;29;19926;-68
2023/02/24 03:38:32;;;;;;;;;;;5.00;99.90;;;;;;4951988;29;19930;-68
2023/02/24 03:41:01;;;;;;;;;;;5.00;99.90;;;;;;4952338;29;19933;-68
2023/02/24 03:43:30;;;;;;;;;;;5.00;99.90;;;;;;4951679;28;19926;-68
2023/02/24 03:45:57;;;;;;;;;;;5.00;99.90;;;;;;4951238;29;19974;-68
2023/02/24 03:48:24;;;;;;;;;;;5.00;99.90;;;;;;4952068;29;19926;-68
2023/02/24 03:50:52;;;;;;;;;;;5.00;99.90;;;;;;4951552;29;19926;-68
2023/02/24 03:53:29;;;;;;;;;;;5.00;99.90;;;;;;4951985;29;19926;-68
2023/02/24 03:56:00;;;;;;;;;;;5.10;99.90;;;;;;4950945;29;20013;-68
2023/02/24 03:58:32;;;;;;;;;;;5.10;99.90;;;;;;4950472;28;19933;-68
2023/02/24 04:01:04;;;;;;;;;;;5.10;99.90;;;;;;4950827;28;20258;-68
2023/02/24 04:03:34;;;;;;;;;;;5.10;99.90;;;;;;4951517;29;19931;-68
2023/02/24 04:06:07;;;;;;;;;;;5.10;99.90;;;;;;4951428;28;19927;-68
2023/02/24 04:08:38;;;;;;;;;;;5.10;99.90;;;;;;4951987;28;19926;-68
2023/02/24 04:11:12;;;;;;;;;;;5.20;99.90;;;;;;4951322;29;19933;-68
2023/02/24 04:13:43;;;;;;;;;;;5.20;99.90;;;;;;4950280;28;20400;-69
2023/02/24 04:16:15;;;;;;;;;;;5.20;99.90;;;;;;4951597;29;19927;-69
2023/02/24 04:18:45;;;;;;;;;;;5.20;99.90;;;;;;4951805;28;19938;-69
2023/02/24 04:21:12;;;;;;;;;;;5.10;99.90;;;;;;4952018;29;19930;-68
2023/02/24 04:23:40;;;;;;;;;;;5.10;99.90;;;;;;4942910;29;20017;-68
2023/02/24 04:26:08;;;;;;;;;;;5.10;99.90;;;;;;4942469;29;20301;-68
2023/02/24 04:28:35;;;;;;;;;;;5.10;99.90;;;;;;4950096;28;19926;-69
2023/02/24 04:31:05;;;;;;;;;;;5.10;99.90;;;;;;4950204;28;19930;-68
2023/02/24 04:33:32;;;;;;;;;;;5.00;99.90;;;;;;4950973;29;19934;-69
2023/02/24 04:35:59;;;;;;;;;;;5.00;99.90;;;;;;4947312;29;20021;-68
2023/02/24 04:38:25;;;;;;;;;;;5.00;99.90;;;;;;4951049;28;20332;-68
2023/02/24 04:40:52;;;;;;;;;;;5.00;99.90;;;;;;4951682;29;19931;-69
2023/02/24 04:43:19;;;;;;;;;;;5.10;99.90;;;;;;4950692;28;20017;-69
2023/02/24 04:45:45;;;;;;;;;;;5.10;99.90;;;;;;4950293;28;19927;-68
2023/02/24 04:48:14;;;;;;;;;;;5.10;99.90;;;;;;4950878;29;19970;-68
2023/02/24 04:50:41;;;;;;;;;;;5.00;99.90;;;;;;4946154;29;19970;-68
2023/02/24 04:53:09;;;;;;;;;;;5.00;99.90;;;;;;4932141;29;20026;-68
2023/02/24 04:55:38;;;;;;;;;;;5.00;99.90;;;;;;4932488;29;19927;-68
2023/02/24 04:58:05;;;;;;;;;;;5.00;99.90;;;;;;4939460;28;19927;-68
2023/02/24 05:00:34;;;;;;;;;;;4.90;99.90;;;;;;4950212;29;19927;-69
2023/02/24 05:03:02;;;;;;;;;;;4.90;99.90;;;;;;4950777;29;20480;-69
2023/02/24 05:05:33;;;;;;;;;;;4.90;99.90;;;;;;4950329;28;20007;-70
2023/02/24 05:08:02;;;;;;;;;;;4.90;99.90;;;;;;4948587;28;20022;-69
2023/02/24 05:10:29;;;;;;;;;;;4.80;99.90;;;;;;4950807;29;20021;-69
2023/02/24 05:12:58;;;;;;;;;;;4.80;99.90;;;;;;4950046;28;19926;-69
2023/02/24 05:15:29;;;;;;;;;;;4.80;99.90;;;;;;4950972;29;19969;-69
2023/02/24 05:17:58;;;;;;;;;;;4.80;99.90;;;;;;4949717;28;20021;-69
2023/02/24 05:23:10;;;;;;;;;;;4.70;99.90;;;;;;4953978;29;20301;-69
2023/02/24 05:25:37;;;;;;;;;;;4.60;99.90;;;;;;4953971;29;19966;-68
2023/02/24 05:28:05;;;;;;;;;;;4.50;99.90;;;;;;4947055;28;20026;-69
2023/02/24 05:30:32;;;;;;;;;;;4.50;99.90;;;;;;4952518;28;20002;-69
2023/02/24 05:32:58;;;;;;;;;;;4.50;99.90;;;;;;4953540;29;19930;-68
2023/02/24 05:35:25;;;;;;;;;;;4.50;99.90;;;;;;4953207;29;19933;-68
2023/02/24 05:37:52;;;;;;;;;;;4.40;99.90;;;;;;4953367;29;19948;-69
2023/02/24 05:40:22;;;;;;;;;;;4.40;99.90;;;;;;4950979;28;19988;-68
2023/02/24 05:42:50;;;;;;;;;;;4.40;99.90;;;;;;4952885;28;19931;-68
2023/02/24 05:45:18;;;;;;;;;;;4.40;99.90;;;;;;4953494;28;19927;-69
2023/02/24 05:47:46;;;;;;;;;;;4.40;99.90;;;;;;4951242;29;19937;-68
2023/02/24 05:50:13;;;;;;;;;;;4.50;99.90;;;;;;4936955;28;19985;-68
2023/02/24 05:52:40;;;;;;;;;;;4.40;99.90;;;;;;4952200;29;19927;-69
2023/02/24 05:55:12;;;;;;;;;;;4.40;99.90;;;;;;4953449;29;19926;-69
2023/02/24 05:57:40;;;;;;;;;;;4.40;99.90;;;;;;4942018;28;19966;-69
2023/02/24 06:00:13;;;;;;;;;;;4.40;99.90;;;;;;4952823;29;20457;-70
2023/02/24 06:02:48;;;;;;;;;;;4.40;99.90;;;;;;4952289;29;19927;-69
2023/02/24 06:05:24;;;;;;;;;;;4.40;99.90;;;;;;4953472;29;19926;-69
2023/02/24 06:08:01;;;;;;;;;;;4.30;99.90;;;;;;4953680;29;19927;-70
2023/02/24 06:10:31;;;;;;;;;;;4.30;99.90;;;;;;4953091;29;19926;-68
2023/02/24 06:13:00;;;;;;;;;;;4.20;99.90;;;;;;4945471;29;19927;-69
2023/02/24 06:15:27;;;;;;;;;;;4.20;99.90;;;;;;4941929;29;19926;-67
2023/02/24 06:17:55;;;;;;;;;;;4.10;99.90;;;;;;4951644;28;20029;-67
2023/02/24 06:20:22;;;;;;;;;;;4.10;99.90;;;;;;4953367;29;19927;-68
2023/02/24 06:22:53;;;;;;;;;;;4.10;99.90;;;;;;4949842;28;19974;-68
2023/02/24 06:25:20;;;;;;;;;;;4.10;99.90;;;;;;4951124;29;19980;-66
2023/02/24 06:27:51;;;;;;;;;;;4.00;99.90;;;;;;4950970;28;19962;-67
2023/02/24 06:30:21;;;;;;;;;;;4.00;99.90;;;;;;4951978;28;19926;-68
2023/02/24 06:32:48;;;;;;;;;;;4.00;99.90;;;;;;4952638;29;20013;-67
2023/02/24 06:35:15;;;;;;;;;;;3.90;99.90;;;;;;4946030;29;19926;-67
2023/02/24 06:37:42;;;;;;;;;;;4.00;99.90;;;;;;4950075;29;19974;-68
2023/02/24 06:40:14;;;;;;;;;;;4.00;99.90;;;;;;4951346;29;19927;-68
2023/02/24 06:42:44;;;;;;;;;;;4.00;99.90;;;;;;4952254;28;19927;-68
2023/02/24 06:45:14;;;;;;;;;;;4.00;99.90;;;;;;4952342;29;20009;-68
2023/02/24 06:47:45;;;;;;;;;;;4.00;99.90;;;;;;4952970;29;20026;-68
2023/02/24 06:50:12;;;;;;;;;;;4.00;99.90;;;;;;4951057;29;19926;-68
2023/02/24 06:52:39;;;;;;;;;;;4.00;99.90;;;;;;4950810;29;20014;-67
2023/02/24 06:55:23;;;;;;;;;;;4.00;99.90;;;;;;4950800;28;19930;-67
2023/02/24 06:57:51;;;;;;;;;;;4.00;99.90;;;;;;4951621;28;19927;-67
2023/02/24 07:00:23;;;;;;;;;;;4.00;99.90;;;;;;4950869;28;19927;-66
2023/02/24 07:02:52;;;;;;;;;;;4.00;99.90;;;;;;4946968;28;19977;-68
2023/02/24 07:05:23;;;;;;;;;;;4.00;99.90;;;;;;4950945;28;20061;-68
2023/02/24 07:07:50;;;;;;;;;;;4.00;99.90;;;;;;4950841;29;19930;-68
2023/02/24 07:10:17;;;;;;;;;;;4.00;99.90;;;;;;4948253;28;19927;-65
2023/02/24 07:12:43;;;;;;;;;;;4.00;99.90;;;;;;4950623;28;19926;-67
2023/02/24 07:15:12;;;;;;;;;;;4.00;99.90;;;;;;4951481;29;19926;-67
2023/02/24 07:17:39;;;;;;;;;;;4.00;99.90;;;;;;4949311;28;20401;-66
2023/02/24 07:20:23;;;;;;;;;;;4.00;99.90;;;;;;4948870;28;20354;-66
2023/02/24 07:22:50;;;;;;;;;;;4.00;99.90;;;;;;4951450;29;20028;-66
2023/02/24 07:25:31;;;;;;;;;;;4.00;99.90;;;;;;4949346;29;19973;-67
2023/02/24 07:28:00;;;;;;;;;;;4.10;99.90;;;;;;4946787;28;20012;-67
2023/02/24 07:30:28;;;;;;;;;;;4.20;99.90;;;;;;4947757;28;19953;-67
2023/02/24 07:32:55;;;;;;;;;;;4.20;99.90;;;;;;4932390;28;19931;-68
2023/02/24 07:35:23;;;;;;;;;;;4.20;99.90;;;;;;4949249;28;19926;-68
2023/02/24 07:37:51;;;;;;;;;;;4.20;99.90;;;;;;4935667;28;19933;-66
2023/02/24 07:40:20;;;;;;;;;;;4.30;99.90;;;;;;4948866;28;20014;-66
2023/02/24 07:42:56;;;;;;;;;;;4.40;99.90;;;;;;4944108;28;19926;-67
2023/02/24 07:45:23;;;;;;;;;;;4.40;99.90;;;;;;4948853;29;20036;-68
2023/02/24 07:47:50;;;;;;;;;;;4.50;99.90;;;;;;4950904;29;19934;-68
2023/02/24 07:50:17;;;;;;;;;;;4.60;99.90;;;;;;4949739;28;20386;-66
2023/02/24 07:52:46;;;;;;;;;;;4.60;99.90;;;;;;4948701;29;19932;-67
2023/02/24 07:55:14;;;;;;;;;;;4.70;99.90;;;;;;4941618;28;19927;-67
2023/02/24 07:57:47;;;;;;;;;;;4.80;99.90;;;;;;4944543;28;20017;-67
2023/02/24 08:00:18;;;;;;;;;;;4.90;99.90;;;;;;4944544;28;19937;-68
2023/02/24 08:02:45;;;;;;;;;;;4.90;99.90;;;;;;4950302;29;19934;-68
2023/02/24 08:05:11;;;;;;;;;;;4.90;99.90;;;;;;4940025;29;19927;-68
2023/02/24 08:07:39;;;;;;;;;;;5.00;99.90;;;;;;4951099;29;19971;-67
2023/02/24 08:10:22;;;;;;;;;;;5.00;99.90;;;;;;4943959;28;20397;-66
2023/02/24 08:12:53;;;;;;;;;;;5.00;99.90;;;;;;4948759;28;19926;-67
2023/02/24 08:15:23;;;;;;;;;;;5.00;99.90;;;;;;4947814;28;20013;-67
2023/02/24 08:17:51;;;;;;;;;;;5.00;99.90;;;;;;4942391;28;19989;-66
2023/02/24 08:20:24;;;;;;;;;;;5.00;99.90;;;;;;4943076;28;20396;-67
2023/02/24 08:22:51;;;;;;;;;;;5.10;99.90;;;;;;4950074;29;19926;-68
2023/02/24 08:25:21;;;;;;;;;;;5.10;99.90;;;;;;4948881;28;20102;-66
2023/02/24 08:27:54;;;;;;;;;;;5.10;99.90;;;;;;4948757;28;19930;-68
2023/02/24 08:30:23;;;;;;;;;;;5.20;99.90;;;;;;4951445;28;19927;-66
2023/02/24 08:32:55;;;;;;;;;;;5.30;99.90;;;;;;4949917;29;19927;-66
2023/02/24 08:35:30;;;;;;;;;;;5.30;99.90;;;;;;4940250;28;20370;-66
2023/02/24 08:38:00;;;;;;;;;;;5.50;99.90;;;;;;4946376;28;20286;-67
2023/02/24 08:40:48;;;;;;;;;;;5.50;99.90;;;;;;4938308;28;20015;-67
2023/02/24 08:43:18;;;;;;;;;;;5.70;99.90;;;;;;4941235;28;20025;-67
2023/02/24 08:45:49;;;;;;;;;;;6.00;99.90;;;;;;4948214;29;20363;-67
2023/02/24 08:48:25;;;;;;;;;;;6.30;99.90;;;;;;4955560;28;19976;-66
2023/02/24 08:50:54;;;;;;;;;;;6.70;99.90;;;;;;4948428;28;19926;-67
2023/02/24 08:53:22;;;;;;;;;;;6.90;99.90;;;;;;4950549;28;19977;-67
2023/02/24 08:55:51;;;;;;;;;;;7.00;99.90;;;;;;4946354;28;20446;-67
2023/02/24 08:58:18;;;;;;;;;;;6.90;99.90;;;;;;4951288;29;19926;-68
2023/02/24 09:00:52;;;;;;;;;;;7.00;99.90;;;;;;4952754;28;19930;-66
2023/02/24 09:03:27;;;;;;;;;;;7.20;99.90;;;;;;4950485;28;19933;-67
2023/02/24 09:05:58;;;;;;;;;;;7.60;99.90;;;;;;4953402;29;20381;-69
2023/02/24 09:08:31;;;;;;;;;;;8.10;99.90;;;;;;4950904;28;19988;-68
2023/02/24 09:11:00;;;;;;;;;;;8.00;99.90;;;;;;4952042;28;19926;-68
2023/02/24 09:13:31;;;;;;;;;;;8.20;99.90;;;;;;4949240;28;19934;-68
2023/02/24 09:15:59;;;;;;;;;;;8.00;99.90;;;;;;4953031;29;19962;-68
2023/02/24 09:18:29;;;;;;;;;;;7.90;99.90;;;;;;4950603;28;20297;-67
2023/02/24 09:20:55;;;;;;;;;;;8.00;99.90;;;;;;4947787;28;20018;-68
2023/02/24 09:23:28;;;;;;;;;;;7.80;99.90;;;;;;4952768;28;20019;-68
2023/02/24 09:25:55;;;;;;;;;;;7.70;99.90;;;;;;4973869;28;19938;-68
2023/02/24 09:28:47;;;;;;;;;;;7.60;99.90;;;;;;4954287;28;19965;-68
2023/02/24 09:31:17;;;;;;;;;;;7.50;99.90;;;;;;4969934;28;19937;-67
2023/02/24 09:33:49;;;;;;;;;;;7.30;99.90;;;;;;4977226;28;19932;-66
2023/02/24 09:36:26;;;;;;;;;;;7.50;99.90;;;;;;5006018;28;19973;-69
2023/02/24 09:39:13;;;;;;;;;;;7.60;99.90;;;;;;4966180;28;19934;-68
2023/02/24 09:41:55;;;;;;;;;;;7.70;99.90;;;;;;4968142;28;19970;-69
2023/02/24 09:44:32;;;;;;;;;;;7.70;99.90;;;;;;4951844;28;19957;-69
2023/02/24 09:47:07;;;;;;;;;;;7.30;99.90;;;;;;4950337;28;20275;-68
2023/02/24 09:49:45;;;;;;;;;;;7.10;99.90;;;;;;4979382;28;19941;-68
2023/02/24 09:52:16;;;;;;;;;;;7.00;99.90;;;;;;4990620;28;19980;-68
2023/02/24 09:55:11;;;;;;;;;;;6.90;99.90;;;;;;5041731;28;20344;-68
2023/02/24 09:57:36;;;;;;;;;;;6.70;99.90;;;;;;4978201;28;19926;-67
2023/02/24 10:02:58;;;;;;;;;;;6.80;99.90;;;;;;5024416;28;20383;-69
2023/02/24 10:05:28;;;;;;;;;;;6.70;99.90;;;;;;4956186;28;20554;-68
2023/02/24 10:07:57;;;;;;;;;;;6.70;99.90;;;;;;5005792;28;19968;-68
2023/02/24 10:10:27;;;;;;;;;;;6.70;99.90;;;;;;4949109;28;19927;-68
2023/02/24 10:12:58;;;;;;;;;;;6.70;99.90;;;;;;4952563;28;19942;-69
2023/02/24 10:18:26;;;;;;;;;;;6.90;99.90;;;;;;4952318;29;20397;-68
2023/02/24 10:20:52;;;;;;;;;;;6.90;99.90;;;;;;4951251;28;20452;-69
2023/02/24 10:23:31;;;;;;;;;;;7.10;99.90;;;;;;4946013;28;20405;-68
2023/02/24 10:26:02;;;;;;;;;;;7.10;99.90;;;;;;4970698;28;19930;-69
2023/02/24 10:28:37;;;;;;;;;;;7.20;99.90;;;;;;4950127;28;19927;-68
2023/02/24 10:31:23;;;;;;;;;;;7.10;99.90;;;;;;4990214;28;19935;-69
2023/02/24 10:33:52;;;;;;;;;;;7.20;99.90;;;;;;4947475;28;19988;-68
2023/02/24 10:36:24;;;;;;;;;;;7.10;99.90;;;;;;4956870;28;19930;-68
2023/02/24 10:38:54;;;;;;;;;;;7.20;99.90;;;;;;4942059;28;19926;-69
2023/02/24 10:41:27;;;;;;;;;;;7.30;99.90;;;;;;4947691;28;19930;-69
2023/02/24 10:43:54;;;;;;;;;;;7.40;99.90;;;;;;4955360;28;19940;-68
2023/02/24 10:46:25;;;;;;;;;;;7.50;99.90;;;;;;4953107;28;19927;-68
2023/02/24 10:48:59;;;;;;;;;;;7.60;99.90;;;;;;4947548;28;19927;-70
2023/02/24 10:51:30;;;;;;;;;;;7.60;99.90;;;;;;4947327;28;19927;-69
2023/02/24 10:54:21;;;;;;;;;;;7.50;99.90;;;;;;4945167;28;19934;-68
2023/02/24 10:56:54;;;;;;;;;;;7.40;99.90;;;;;;4949900;28;19927;-69
2023/02/24 10:59:40;;;;;;;;;;;7.40;99.90;;;;;;4950918;29;19972;-69
2023/02/24 11:02:28;;;;;;;;;;;7.30;99.90;;;;;;4950440;28;20428;-68
2023/02/24 11:05:15;;;;;;;;;;;7.30;99.90;;;;;;4939429;28;20344;-69
2023/02/24 11:07:52;;;;;;;;;;;7.20;99.90;;;;;;4949504;28;20020;-68
2023/02/24 11:10:25;;;;;;;;;;;7.20;99.90;;;;;;4948788;28;19933;-68
2023/02/24 11:18:30;;;;;;;;;;;7.50;99.90;;;;;;4950055;29;20065;-69
2023/02/24 11:20:58;;;;;;;;;;;7.80;99.90;;;;;;4946389;28;19980;-69
2023/02/24 11:23:27;;;;;;;;;;;8.00;99.90;;;;;;4947288;28;19933;-69
2023/02/24 11:25:58;;;;;;;;;;;8.20;99.90;;;;;;4953493;28;20094;-69
2023/02/24 11:28:33;;;;;;;;;;;8.20;99.90;;;;;;4951667;28;19930;-69
2023/02/24 11:31:05;;;;;;;;;;;8.00;99.90;;;;;;4950841;28;20013;-68
2023/02/24 11:33:38;;;;;;;;;;;8.00;99.90;;;;;;4951360;28;20012;-69
2023/02/24 11:36:11;;;;;;;;;;;8.10;99.90;;;;;;4944796;28;20590;-69
2023/02/24 11:38:39;;;;;;;;;;;8.10;99.90;;;;;;4980135;28;19950;-70
2023/02/24 11:41:12;;;;;;;;;;;8.10;99.90;;;;;;4954750;28;19933;-70
2023/02/24 11:43:42;;;;;;;;;;;8.20;99.90;;;;;;4948466;28;20035;-69
2023/02/24 11:46:12;;;;;;;;;;;8.10;99.90;;;;;;4955205;28;19965;-69
2023/02/24 11:48:41;;;;;;;;;;;8.10;99.90;;;;;;4955963;28;19965;-69
2023/02/24 11:51:11;;;;;;;;;;;8.10;99.90;;;;;;4968579;28;19949;-70
2023/02/24 11:53:41;;;;;;;;;;;8.20;99.90;;;;;;4962209;28;20477;-70
2023/02/24 11:56:11;;;;;;;;;;;8.30;99.90;;;;;;4953749;28;20024;-70
2023/02/24 11:58:41;;;;;;;;;;;8.50;99.90;;;;;;4977770;28;19924;-68
2023/02/24 12:01:12;;;;;;;;;;;8.60;99.90;;;;;;4950458;28;19931;-68
2023/02/24 12:03:44;;;;;;;;;;;8.70;99.90;;;;;;4955695;28;20285;-69
2023/02/24 12:06:15;;;;;;;;;;;8.70;99.90;;;;;;4950659;28;20052;-69
2023/02/24 12:08:43;;;;;;;;;;;8.60;99.90;;;;;;4940945;29;19933;-69
2023/02/24 12:11:12;;;;;;;;;;;8.70;99.90;;;;;;4959788;28;20135;-71
2023/02/24 12:13:42;;;;;;;;;;;8.50;99.90;;;;;;4958351;28;19973;-68
2023/02/24 12:16:13;;;;;;;;;;;8.60;99.90;;;;;;4960988;28;19934;-69
2023/02/24 12:18:44;;;;;;;;;;;8.60;99.90;;;;;;4990593;28;19947;-72
2023/02/24 12:21:14;;;;;;;;;;;8.50;99.90;;;;;;5050116;28;19925;-71
2023/02/24 12:23:43;;;;;;;;;;;8.70;99.90;;;;;;4956035;28;19926;-72
2023/02/24 12:26:20;;;;;;;;;;;8.70;99.90;;;;;;4965948;28;19930;-69
2023/02/24 12:28:58;;;;;;;;;;;8.80;99.90;;;;;;4959958;28;20017;-70
2023/02/24 12:31:30;;;;;;;;;;;8.90;99.90;;;;;;4953642;28;19927;-71
2023/02/24 12:34:07;;;;;;;;;;;8.90;99.90;;;;;;4960825;28;19932;-70
2023/02/24 12:36:42;;;;;;;;;;;9.00;99.90;;;;;;5005055;28;19925;-72
2023/02/24 12:39:11;;;;;;;;;;;9.00;99.90;;;;;;4948297;28;20425;-71
2023/02/24 12:41:43;;;;;;;;;;;9.00;99.90;;;;;;4946575;29;19961;-73
2023/02/24 12:44:19;;;;;;;;;;;9.00;99.90;;;;;;4951370;28;19926;-71
2023/02/24 12:46:51;;;;;;;;;;;9.10;99.90;;;;;;4982239;28;20026;-71
2023/02/24 12:49:26;;;;;;;;;;;9.00;99.90;;;;;;4943313;28;20298;-72
2023/02/24 12:51:58;;;;;;;;;;;9.00;99.90;;;;;;4973372;28;19925;-70
2023/02/24 12:54:28;;;;;;;;;;;9.00;99.90;;;;;;4971526;28;19926;-72
2023/02/24 12:56:59;;;;;;;;;;;8.80;99.90;;;;;;4950163;29;19926;-71
2023/02/24 12:59:28;;;;;;;;;;;8.70;99.90;;;;;;4952175;28;19930;-71
2023/02/24 13:01:59;;;;;;;;;;;8.80;99.90;;;;;;4949872;28;19966;-71
2023/02/24 13:04:36;;;;;;;;;;;8.50;99.90;;;;;;4943307;28;19937;-72
2023/02/24 13:07:30;;;;;;;;;;;8.50;99.90;;;;;;4956018;28;19926;-72
2023/02/24 13:10:05;;;;;;;;;;;8.50;99.90;;;;;;4954957;28;20027;-71
2023/02/24 13:12:34;;;;;;;;;;;8.50;99.90;;;;;;4955871;28;19980;-71
2023/02/24 13:15:03;;;;;;;;;;;8.60;99.90;;;;;;4952407;28;19927;-71
2023/02/24 13:17:29;;;;;;;;;;;8.60;99.90;;;;;;4942359;28;20018;-71
2023/02/24 13:20:09;;;;;;;;;;;8.50;99.90;;;;;;4952491;28;20005;-71
2023/02/24 13:22:40;;;;;;;;;;;8.40;99.90;;;;;;4952074;28;21005;-70
2023/02/24 13:25:17;;;;;;;;;;;8.30;99.90;;;;;;4946575;28;20411;-70
2023/02/24 13:27:44;;;;;;;;;;;8.30;99.90;;;;;;4946993;28;19937;-73
2023/02/24 13:30:24;;;;;;;;;;;8.20;99.90;;;;;;4951916;28;19930;-71
2023/02/24 13:32:59;;;;;;;;;;;8.30;99.90;;;;;;4951620;29;19997;-70
2023/02/24 13:35:31;;;;;;;;;;;8.20;99.90;;;;;;4964302;28;20390;-71
2023/02/24 13:38:07;;;;;;;;;;;8.30;99.90;;;;;;4936619;28;20032;-71
2023/02/24 13:40:34;;;;;;;;;;;8.20;99.90;;;;;;4968982;28;19934;-68
2023/02/24 13:43:03;;;;;;;;;;;8.00;99.90;;;;;;4944367;28;19926;-68
2023/02/24 13:45:31;;;;;;;;;;;8.10;99.90;;;;;;4951408;28;19973;-68
2023/02/24 13:48:09;;;;;;;;;;;8.00;99.90;;;;;;4953695;28;19934;-68
2023/02/24 13:50:40;;;;;;;;;;;7.90;99.90;;;;;;4950340;28;20005;-68
2023/02/24 13:53:28;;;;;;;;;;;8.00;99.90;;;;;;4957449;28;19940;-68
2023/02/24 13:56:03;;;;;;;;;;;7.90;99.90;;;;;;4949518;28;19926;-68
2023/02/24 13:58:37;;;;;;;;;;;7.80;99.90;;;;;;4944832;28;20343;-69
2023/02/24 14:01:08;;;;;;;;;;;7.80;99.90;;;;;;4954894;28;19966;-69
2023/02/24 14:03:36;;;;;;;;;;;7.60;99.90;;;;;;4948226;28;19933;-69
2023/02/24 14:06:04;;;;;;;;;;;7.50;99.90;;;;;;4951120;28;20010;-69
2023/02/24 14:08:37;;;;;;;;;;;7.60;99.90;;;;;;4952149;28;20026;-70
2023/02/24 14:11:08;;;;;;;;;;;7.70;99.90;;;;;;4954866;28;19996;-68
2023/02/24 14:13:35;;;;;;;;;;;7.70;99.90;;;;;;4956481;28;20389;-69
2023/02/24 14:16:06;;;;;;;;;;;7.70;99.90;;;;;;4951054;28;19972;-69
2023/02/24 14:18:32;;;;;;;;;;;7.60;99.90;;;;;;4947598;28;20037;-67
2023/02/24 14:20:59;;;;;;;;;;;7.50;99.90;;;;;;4948935;28;19969;-69
2023/02/24 14:23:28;;;;;;;;;;;7.50;99.90;;;;;;4949847;28;19933;-69
2023/02/24 14:25:56;;;;;;;;;;;7.50;99.90;;;;;;4951390;29;19926;-69
2023/02/24 14:28:24;;;;;;;;;;;7.50;99.90;;;;;;4943312;28;19930;-70
2023/02/24 14:30:52;;;;;;;;;;;7.30;99.90;;;;;;4948358;28;19926;-69
2023/02/24 14:33:25;;;;;;;;;;;7.20;99.90;;;;;;4957824;28;19979;-68
2023/02/24 14:35:52;;;;;;;;;;;7.20;99.90;;;;;;4953694;28;19966;-69
2023/02/24 14:38:34;;;;;;;;;;;7.20;99.90;;;;;;4946310;28;20009;-70
2023/02/24 14:41:01;;;;;;;;;;;7.10;99.90;;;;;;4949837;28;19970;-70
2023/02/24 14:43:28;;;;;;;;;;;7.00;99.90;;;;;;4955700;28;19970;-69
2023/02/24 14:45:57;;;;;;;;;;;7.10;99.90;;;;;;4953292;28;20407;-70
2023/02/24 14:48:24;;;;;;;;;;;7.00;99.90;;;;;;4948563;28;19927;-69
2023/02/24 14:50:52;;;;;;;;;;;7.00;99.90;;;;;;4945738;28;19935;-68
2023/02/24 14:53:21;;;;;;;;;;;7.10;99.90;;;;;;4946741;28;19934;-70
2023/02/24 14:55:50;;;;;;;;;;;7.00;99.90;;;;;;4946050;28;19926;-70
2023/02/24 14:58:21;;;;;;;;;;;7.00;99.90;;;;;;4946403;28;19973;-68
2023/02/24 15:00:49;;;;;;;;;;;7.10;99.90;;;;;;4958537;28;20507;-69
2023/02/24 15:03:19;;;;;;;;;;;7.10;99.90;;;;;;4961054;28;19930;-68
2023/02/24 15:05:48;;;;;;;;;;;7.20;99.90;;;;;;4950118;28;19938;-68